sensor_id;sensor_type;location;lat;lon;timestamp;P1;durP1;ratioP1;P2;durP2;ratioP2
38111;SDS011;64011;56.312;44.048;2022-10-16T00:01:39;23.38;;;10.20;;
38111;SDS011;64011;56.312;44.048;2022-10-16T00:03:41;24.20;;;11.02;;
38111;SDS011;64011;56.312;44.048;2022-10-16T00:05:42;21.95;;;10.45;;
38111;SDS011;64011;56.312;44.048;2022-10-16T00:07:44;22.60;;;10.85;;
38111;SDS011;64011;56.312;44.048;2022-10-16T00:09:45;21.90;;;10.13;;
38111;SDS011;64011;56.312;44.048;2022-10-16T00:11:46;21.13;;;10.65;;
38111;SDS011;64011;56.312;44.048;2022-10-16T00:13:49;23.08;;;11.70;;
38111;SDS011;64011;56.312;44.048;2022-10-16T00:15:51;20.50;;;10.30;;
38111;SDS011;64011;56.312;44.048;2022-10-16T00:17:55;23.67;;;11.13;;
38111;SDS011;64011;56.312;44.048;2022-10-16T00:19:56;21.15;;;10.85;;
38111;SDS011;64011;56.312;44.048;2022-10-16T00:22:15;22.42;;;10.77;;
38111;SDS011;64011;56.312;44.048;2022-10-16T00:24:23;21.47;;;10.63;;
38111;SDS011;64011;56.312;44.048;2022-10-16T00:26:24;20.63;;;10.10;;
38111;SDS011;64011;56.312;44.048;2022-10-16T00:28:26;20.10;;;10.38;;
38111;SDS011;64011;56.312;44.048;2022-10-16T00:30:29;23.70;;;10.55;;
38111;SDS011;64011;56.312;44.048;2022-10-16T00:32:29;24.02;;;10.45;;
38111;SDS011;64011;56.312;44.048;2022-10-16T00:34:30;22.77;;;10.70;;
38111;SDS011;64011;56.312;44.048;2022-10-16T00:36:31;21.58;;;10.40;;
38111;SDS011;64011;56.312;44.048;2022-10-16T00:38:32;21.77;;;10.32;;
38111;SDS011;64011;56.312;44.048;2022-10-16T00:40:33;20.52;;;9.55;;
38111;SDS011;64011;56.312;44.048;2022-10-16T00:42:33;20.45;;;9.95;;
38111;SDS011;64011;56.312;44.048;2022-10-16T00:44:44;22.63;;;10.05;;
38111;SDS011;64011;56.312;44.048;2022-10-16T00:46:48;20.52;;;9.13;;
38111;SDS011;64011;56.312;44.048;2022-10-16T00:48:51;21.60;;;10.02;;
38111;SDS011;64011;56.312;44.048;2022-10-16T00:50:53;22.13;;;10.32;;
38111;SDS011;64011;56.312;44.048;2022-10-16T00:52:54;19.60;;;9.70;;
38111;SDS011;64011;56.312;44.048;2022-10-16T00:54:55;21.40;;;10.63;;
38111;SDS011;64011;56.312;44.048;2022-10-16T00:56:57;21.45;;;10.05;;
38111;SDS011;64011;56.312;44.048;2022-10-16T00:58:59;20.45;;;9.95;;
38111;SDS011;64011;56.312;44.048;2022-10-16T01:01:02;21.50;;;10.30;;
38111;SDS011;64011;56.312;44.048;2022-10-16T01:05:29;19.55;;;9.43;;
38111;SDS011;64011;56.312;44.048;2022-10-16T01:07:36;18.85;;;9.55;;
38111;SDS011;64011;56.312;44.048;2022-10-16T01:09:47;20.55;;;10.68;;
38111;SDS011;64011;56.312;44.048;2022-10-16T01:11:55;21.45;;;9.82;;
38111;SDS011;64011;56.312;44.048;2022-10-16T01:14:00;21.13;;;9.82;;
38111;SDS011;64011;56.312;44.048;2022-10-16T01:16:05;18.95;;;9.93;;
38111;SDS011;64011;56.312;44.048;2022-10-16T01:18:08;19.88;;;10.00;;
38111;SDS011;64011;56.312;44.048;2022-10-16T01:20:14;19.98;;;10.15;;
38111;SDS011;64011;56.312;44.048;2022-10-16T01:22:20;19.40;;;9.82;;
38111;SDS011;64011;56.312;44.048;2022-10-16T01:24:25;20.45;;;9.77;;
38111;SDS011;64011;56.312;44.048;2022-10-16T01:26:35;21.10;;;10.07;;
38111;SDS011;64011;56.312;44.048;2022-10-16T01:30:44;20.50;;;9.63;;
38111;SDS011;64011;56.312;44.048;2022-10-16T01:32:45;21.77;;;10.23;;
38111;SDS011;64011;56.312;44.048;2022-10-16T01:34:50;22.83;;;10.07;;
38111;SDS011;64011;56.312;44.048;2022-10-16T01:36:54;20.95;;;10.63;;
38111;SDS011;64011;56.312;44.048;2022-10-16T01:38:57;20.95;;;10.70;;
38111;SDS011;64011;56.312;44.048;2022-10-16T01:41:01;22.23;;;10.88;;
38111;SDS011;64011;56.312;44.048;2022-10-16T01:43:07;21.52;;;10.82;;
38111;SDS011;64011;56.312;44.048;2022-10-16T01:45:12;21.52;;;10.63;;
38111;SDS011;64011;56.312;44.048;2022-10-16T01:47:14;21.40;;;10.68;;
38111;SDS011;64011;56.312;44.048;2022-10-16T01:49:15;22.27;;;10.70;;
38111;SDS011;64011;56.312;44.048;2022-10-16T01:51:18;22.63;;;10.57;;
38111;SDS011;64011;56.312;44.048;2022-10-16T01:53:19;23.02;;;10.60;;
38111;SDS011;64011;56.312;44.048;2022-10-16T01:55:22;20.38;;;10.40;;
38111;SDS011;64011;56.312;44.048;2022-10-16T01:57:24;22.33;;;10.65;;
38111;SDS011;64011;56.312;44.048;2022-10-16T01:59:25;22.02;;;11.15;;
38111;SDS011;64011;56.312;44.048;2022-10-16T02:01:28;24.45;;;11.55;;
38111;SDS011;64011;56.312;44.048;2022-10-16T02:03:31;23.13;;;11.07;;
38111;SDS011;64011;56.312;44.048;2022-10-16T02:05:33;22.17;;;11.00;;
38111;SDS011;64011;56.312;44.048;2022-10-16T02:07:37;23.15;;;11.50;;
38111;SDS011;64011;56.312;44.048;2022-10-16T02:09:38;22.35;;;11.90;;
38111;SDS011;64011;56.312;44.048;2022-10-16T02:11:38;21.27;;;11.18;;
38111;SDS011;64011;56.312;44.048;2022-10-16T02:13:40;23.00;;;11.45;;
38111;SDS011;64011;56.312;44.048;2022-10-16T02:15:44;21.70;;;11.23;;
38111;SDS011;64011;56.312;44.048;2022-10-16T02:17:46;22.27;;;11.25;;
38111;SDS011;64011;56.312;44.048;2022-10-16T02:19:47;21.65;;;11.38;;
38111;SDS011;64011;56.312;44.048;2022-10-16T02:21:49;21.23;;;10.88;;
38111;SDS011;64011;56.312;44.048;2022-10-16T02:23:54;21.17;;;10.35;;
38111;SDS011;64011;56.312;44.048;2022-10-16T02:25:57;21.30;;;11.00;;
38111;SDS011;64011;56.312;44.048;2022-10-16T02:28:00;22.20;;;11.40;;
38111;SDS011;64011;56.312;44.048;2022-10-16T02:30:05;22.42;;;11.43;;
38111;SDS011;64011;56.312;44.048;2022-10-16T02:32:08;23.25;;;11.77;;
38111;SDS011;64011;56.312;44.048;2022-10-16T02:34:11;21.30;;;11.48;;
38111;SDS011;64011;56.312;44.048;2022-10-16T02:36:12;22.63;;;11.55;;
38111;SDS011;64011;56.312;44.048;2022-10-16T02:38:14;22.70;;;11.25;;
38111;SDS011;64011;56.312;44.048;2022-10-16T02:40:15;22.85;;;11.35;;
38111;SDS011;64011;56.312;44.048;2022-10-16T02:42:17;22.17;;;11.00;;
38111;SDS011;64011;56.312;44.048;2022-10-16T02:44:18;22.20;;;10.85;;
38111;SDS011;64011;56.312;44.048;2022-10-16T02:46:19;22.48;;;11.68;;
38111;SDS011;64011;56.312;44.048;2022-10-16T02:48:19;24.75;;;11.80;;
38111;SDS011;64011;56.312;44.048;2022-10-16T02:50:22;24.38;;;11.32;;
38111;SDS011;64011;56.312;44.048;2022-10-16T02:52:22;23.25;;;12.07;;
38111;SDS011;64011;56.312;44.048;2022-10-16T02:54:23;22.65;;;11.23;;
38111;SDS011;64011;56.312;44.048;2022-10-16T02:56:24;22.77;;;11.45;;
38111;SDS011;64011;56.312;44.048;2022-10-16T02:58:25;23.60;;;12.48;;
38111;SDS011;64011;56.312;44.048;2022-10-16T03:00:25;22.40;;;12.13;;
38111;SDS011;64011;56.312;44.048;2022-10-16T03:02:26;23.23;;;12.20;;
38111;SDS011;64011;56.312;44.048;2022-10-16T03:04:27;21.10;;;11.40;;
38111;SDS011;64011;56.312;44.048;2022-10-16T03:06:29;25.05;;;12.77;;
38111;SDS011;64011;56.312;44.048;2022-10-16T03:08:30;22.65;;;11.55;;
38111;SDS011;64011;56.312;44.048;2022-10-16T03:10:30;26.52;;;12.27;;
38111;SDS011;64011;56.312;44.048;2022-10-16T03:12:31;25.33;;;12.10;;
38111;SDS011;64011;56.312;44.048;2022-10-16T03:14:32;23.25;;;12.30;;
38111;SDS011;64011;56.312;44.048;2022-10-16T03:16:32;23.42;;;13.35;;
38111;SDS011;64011;56.312;44.048;2022-10-16T03:18:33;24.15;;;12.88;;
38111;SDS011;64011;56.312;44.048;2022-10-16T03:20:34;24.65;;;13.15;;
38111;SDS011;64011;56.312;44.048;2022-10-16T03:22:36;24.45;;;13.27;;
38111;SDS011;64011;56.312;44.048;2022-10-16T03:24:37;25.10;;;13.45;;
38111;SDS011;64011;56.312;44.048;2022-10-16T03:26:38;23.85;;;12.55;;
38111;SDS011;64011;56.312;44.048;2022-10-16T03:28:38;24.38;;;12.05;;
38111;SDS011;64011;56.312;44.048;2022-10-16T03:30:39;24.55;;;13.27;;
38111;SDS011;64011;56.312;44.048;2022-10-16T03:32:40;23.70;;;13.27;;
38111;SDS011;64011;56.312;44.048;2022-10-16T03:34:40;24.77;;;12.85;;
38111;SDS011;64011;56.312;44.048;2022-10-16T03:36:41;25.50;;;13.07;;
38111;SDS011;64011;56.312;44.048;2022-10-16T03:38:43;22.83;;;11.77;;
38111;SDS011;64011;56.312;44.048;2022-10-16T03:40:44;23.40;;;12.73;;
38111;SDS011;64011;56.312;44.048;2022-10-16T03:42:45;24.73;;;13.20;;
38111;SDS011;64011;56.312;44.048;2022-10-16T03:44:45;27.17;;;12.75;;
38111;SDS011;64011;56.312;44.048;2022-10-16T03:46:46;25.02;;;13.15;;
38111;SDS011;64011;56.312;44.048;2022-10-16T03:48:47;24.15;;;12.80;;
38111;SDS011;64011;56.312;44.048;2022-10-16T03:50:48;23.17;;;12.27;;
38111;SDS011;64011;56.312;44.048;2022-10-16T03:52:48;22.67;;;11.85;;
38111;SDS011;64011;56.312;44.048;2022-10-16T03:54:50;26.77;;;12.57;;
38111;SDS011;64011;56.312;44.048;2022-10-16T03:56:51;22.65;;;12.77;;
38111;SDS011;64011;56.312;44.048;2022-10-16T03:58:52;21.70;;;11.55;;
38111;SDS011;64011;56.312;44.048;2022-10-16T04:00:53;21.77;;;11.55;;
38111;SDS011;64011;56.312;44.048;2022-10-16T04:02:53;24.80;;;12.05;;
38111;SDS011;64011;56.312;44.048;2022-10-16T04:04:54;22.55;;;11.60;;
38111;SDS011;64011;56.312;44.048;2022-10-16T04:06:55;21.95;;;12.35;;
38111;SDS011;64011;56.312;44.048;2022-10-16T04:08:56;22.52;;;12.18;;
38111;SDS011;64011;56.312;44.048;2022-10-16T04:10:58;23.25;;;12.02;;
38111;SDS011;64011;56.312;44.048;2022-10-16T04:12:58;22.08;;;11.38;;
38111;SDS011;64011;56.312;44.048;2022-10-16T04:14:59;25.20;;;12.90;;
38111;SDS011;64011;56.312;44.048;2022-10-16T04:17:00;23.65;;;12.43;;
38111;SDS011;64011;56.312;44.048;2022-10-16T04:19:01;24.30;;;12.43;;
38111;SDS011;64011;56.312;44.048;2022-10-16T04:21:02;25.88;;;12.80;;
38111;SDS011;64011;56.312;44.048;2022-10-16T04:23:03;25.35;;;13.02;;
38111;SDS011;64011;56.312;44.048;2022-10-16T04:25:04;23.88;;;12.15;;
38111;SDS011;64011;56.312;44.048;2022-10-16T04:27:07;23.92;;;12.13;;
38111;SDS011;64011;56.312;44.048;2022-10-16T04:29:07;24.13;;;11.90;;
38111;SDS011;64011;56.312;44.048;2022-10-16T04:31:08;23.33;;;11.77;;
38111;SDS011;64011;56.312;44.048;2022-10-16T04:33:09;24.83;;;12.43;;
38111;SDS011;64011;56.312;44.048;2022-10-16T04:35:10;23.75;;;11.88;;
38111;SDS011;64011;56.312;44.048;2022-10-16T04:37:10;23.88;;;11.90;;
38111;SDS011;64011;56.312;44.048;2022-10-16T04:39:11;21.38;;;11.25;;
38111;SDS011;64011;56.312;44.048;2022-10-16T04:41:12;26.38;;;11.85;;
38111;SDS011;64011;56.312;44.048;2022-10-16T04:43:14;24.92;;;12.65;;
38111;SDS011;64011;56.312;44.048;2022-10-16T04:45:15;23.30;;;11.65;;
38111;SDS011;64011;56.312;44.048;2022-10-16T04:47:15;26.58;;;12.73;;
38111;SDS011;64011;56.312;44.048;2022-10-16T04:49:16;22.48;;;11.77;;
38111;SDS011;64011;56.312;44.048;2022-10-16T04:51:17;24.27;;;12.48;;
38111;SDS011;64011;56.312;44.048;2022-10-16T04:53:18;26.25;;;12.38;;
38111;SDS011;64011;56.312;44.048;2022-10-16T04:55:19;21.48;;;11.57;;
38111;SDS011;64011;56.312;44.048;2022-10-16T04:57:19;23.98;;;11.68;;
38111;SDS011;64011;56.312;44.048;2022-10-16T04:59:23;22.70;;;11.48;;
38111;SDS011;64011;56.312;44.048;2022-10-16T05:01:23;24.98;;;11.45;;
38111;SDS011;64011;56.312;44.048;2022-10-16T05:03:24;23.02;;;12.43;;
38111;SDS011;64011;56.312;44.048;2022-10-16T05:05:25;24.27;;;12.48;;
38111;SDS011;64011;56.312;44.048;2022-10-16T05:07:26;21.35;;;11.95;;
38111;SDS011;64011;56.312;44.048;2022-10-16T05:09:27;24.30;;;12.40;;
38111;SDS011;64011;56.312;44.048;2022-10-16T05:11:27;30.95;;;13.70;;
38111;SDS011;64011;56.312;44.048;2022-10-16T05:13:28;22.95;;;12.70;;
38111;SDS011;64011;56.312;44.048;2022-10-16T05:15:30;24.60;;;12.07;;
38111;SDS011;64011;56.312;44.048;2022-10-16T05:17:31;23.83;;;12.05;;
38111;SDS011;64011;56.312;44.048;2022-10-16T05:19:32;20.45;;;12.13;;
38111;SDS011;64011;56.312;44.048;2022-10-16T05:21:32;25.33;;;12.82;;
38111;SDS011;64011;56.312;44.048;2022-10-16T05:23:33;25.25;;;12.50;;
38111;SDS011;64011;56.312;44.048;2022-10-16T05:25:34;23.95;;;12.75;;
38111;SDS011;64011;56.312;44.048;2022-10-16T05:27:34;23.92;;;12.68;;
38111;SDS011;64011;56.312;44.048;2022-10-16T05:29:35;22.73;;;12.00;;
38111;SDS011;64011;56.312;44.048;2022-10-16T05:31:37;25.00;;;13.32;;
38111;SDS011;64011;56.312;44.048;2022-10-16T05:33:38;26.52;;;13.85;;
38111;SDS011;64011;56.312;44.048;2022-10-16T05:35:39;23.85;;;13.55;;
38111;SDS011;64011;56.312;44.048;2022-10-16T05:37:39;25.42;;;11.52;;
38111;SDS011;64011;56.312;44.048;2022-10-16T05:39:40;24.95;;;11.75;;
38111;SDS011;64011;56.312;44.048;2022-10-16T05:41:41;23.27;;;11.93;;
38111;SDS011;64011;56.312;44.048;2022-10-16T05:43:42;22.02;;;10.85;;
38111;SDS011;64011;56.312;44.048;2022-10-16T05:45:42;22.95;;;11.38;;
38111;SDS011;64011;56.312;44.048;2022-10-16T05:47:44;19.38;;;9.98;;
38111;SDS011;64011;56.312;44.048;2022-10-16T05:49:45;20.23;;;9.60;;
38111;SDS011;64011;56.312;44.048;2022-10-16T05:51:46;18.25;;;9.65;;
38111;SDS011;64011;56.312;44.048;2022-10-16T05:53:47;19.33;;;9.57;;
38111;SDS011;64011;56.312;44.048;2022-10-16T05:55:51;20.15;;;9.57;;
38111;SDS011;64011;56.312;44.048;2022-10-16T05:57:53;21.10;;;9.63;;
38111;SDS011;64011;56.312;44.048;2022-10-16T05:59:54;19.20;;;10.13;;
38111;SDS011;64011;56.312;44.048;2022-10-16T06:01:55;20.33;;;10.05;;
38111;SDS011;64011;56.312;44.048;2022-10-16T06:03:57;19.30;;;9.43;;
38111;SDS011;64011;56.312;44.048;2022-10-16T06:05:58;18.38;;;8.95;;
38111;SDS011;64011;56.312;44.048;2022-10-16T06:07:59;18.50;;;9.48;;
38111;SDS011;64011;56.312;44.048;2022-10-16T06:10:00;18.75;;;9.18;;
38111;SDS011;64011;56.312;44.048;2022-10-16T06:12:00;21.70;;;9.20;;
38111;SDS011;64011;56.312;44.048;2022-10-16T06:14:01;19.70;;;9.18;;
38111;SDS011;64011;56.312;44.048;2022-10-16T06:16:02;21.75;;;9.73;;
38111;SDS011;64011;56.312;44.048;2022-10-16T06:18:04;20.00;;;9.13;;
38111;SDS011;64011;56.312;44.048;2022-10-16T06:20:07;17.25;;;8.70;;
38111;SDS011;64011;56.312;44.048;2022-10-16T06:22:08;19.05;;;8.48;;
38111;SDS011;64011;56.312;44.048;2022-10-16T06:24:09;17.50;;;8.45;;
38111;SDS011;64011;56.312;44.048;2022-10-16T06:26:10;18.40;;;8.98;;
38111;SDS011;64011;56.312;44.048;2022-10-16T06:28:13;20.65;;;9.60;;
38111;SDS011;64011;56.312;44.048;2022-10-16T06:30:13;20.30;;;8.88;;
38111;SDS011;64011;56.312;44.048;2022-10-16T06:32:14;19.50;;;9.63;;
38111;SDS011;64011;56.312;44.048;2022-10-16T06:34:15;17.77;;;9.07;;
38111;SDS011;64011;56.312;44.048;2022-10-16T06:36:17;20.08;;;9.18;;
38111;SDS011;64011;56.312;44.048;2022-10-16T06:38:18;21.65;;;9.10;;
38111;SDS011;64011;56.312;44.048;2022-10-16T06:40:19;22.13;;;9.43;;
38111;SDS011;64011;56.312;44.048;2022-10-16T06:42:19;22.67;;;8.88;;
38111;SDS011;64011;56.312;44.048;2022-10-16T06:44:20;19.38;;;9.80;;
38111;SDS011;64011;56.312;44.048;2022-10-16T06:46:21;18.42;;;8.98;;
38111;SDS011;64011;56.312;44.048;2022-10-16T06:48:23;20.75;;;9.32;;
38111;SDS011;64011;56.312;44.048;2022-10-16T06:50:24;20.58;;;9.80;;
38111;SDS011;64011;56.312;44.048;2022-10-16T06:52:26;22.30;;;9.63;;
38111;SDS011;64011;56.312;44.048;2022-10-16T06:54:28;20.27;;;8.73;;
38111;SDS011;64011;56.312;44.048;2022-10-16T06:56:29;19.10;;;8.88;;
38111;SDS011;64011;56.312;44.048;2022-10-16T06:58:31;20.75;;;9.43;;
38111;SDS011;64011;56.312;44.048;2022-10-16T07:00:31;20.23;;;9.07;;
38111;SDS011;64011;56.312;44.048;2022-10-16T07:02:32;23.33;;;10.18;;
38111;SDS011;64011;56.312;44.048;2022-10-16T07:04:33;19.52;;;9.40;;
38111;SDS011;64011;56.312;44.048;2022-10-16T07:06:34;19.58;;;9.50;;
38111;SDS011;64011;56.312;44.048;2022-10-16T07:08:36;19.85;;;9.07;;
38111;SDS011;64011;56.312;44.048;2022-10-16T07:10:38;21.17;;;9.15;;
38111;SDS011;64011;56.312;44.048;2022-10-16T07:12:38;19.30;;;9.15;;
38111;SDS011;64011;56.312;44.048;2022-10-16T07:14:39;20.17;;;9.63;;
38111;SDS011;64011;56.312;44.048;2022-10-16T07:16:40;25.20;;;9.32;;
38111;SDS011;64011;56.312;44.048;2022-10-16T07:18:41;19.90;;;9.65;;
38111;SDS011;64011;56.312;44.048;2022-10-16T07:20:42;22.88;;;10.38;;
38111;SDS011;64011;56.312;44.048;2022-10-16T07:22:42;21.02;;;9.45;;
38111;SDS011;64011;56.312;44.048;2022-10-16T07:24:44;23.48;;;9.35;;
38111;SDS011;64011;56.312;44.048;2022-10-16T07:26:45;20.55;;;9.57;;
38111;SDS011;64011;56.312;44.048;2022-10-16T07:28:46;21.17;;;9.30;;
38111;SDS011;64011;56.312;44.048;2022-10-16T07:30:47;22.25;;;9.63;;
38111;SDS011;64011;56.312;44.048;2022-10-16T07:32:47;23.02;;;9.13;;
38111;SDS011;64011;56.312;44.048;2022-10-16T07:34:48;19.33;;;9.00;;
38111;SDS011;64011;56.312;44.048;2022-10-16T07:36:49;19.67;;;9.27;;
38111;SDS011;64011;56.312;44.048;2022-10-16T07:38:50;20.88;;;9.38;;
38111;SDS011;64011;56.312;44.048;2022-10-16T07:40:57;21.63;;;10.20;;
38111;SDS011;64011;56.312;44.048;2022-10-16T07:42:58;21.42;;;9.95;;
38111;SDS011;64011;56.312;44.048;2022-10-16T07:44:59;21.80;;;10.13;;
38111;SDS011;64011;56.312;44.048;2022-10-16T07:46:59;21.55;;;9.65;;
38111;SDS011;64011;56.312;44.048;2022-10-16T07:49:00;20.23;;;8.52;;
38111;SDS011;64011;56.312;44.048;2022-10-16T07:51:01;21.10;;;9.55;;
38111;SDS011;64011;56.312;44.048;2022-10-16T07:53:03;19.08;;;8.90;;
38111;SDS011;64011;56.312;44.048;2022-10-16T07:55:04;20.73;;;9.07;;
38111;SDS011;64011;56.312;44.048;2022-10-16T07:57:07;19.45;;;9.15;;
38111;SDS011;64011;56.312;44.048;2022-10-16T07:59:07;21.55;;;8.98;;
38111;SDS011;64011;56.312;44.048;2022-10-16T08:01:09;20.58;;;8.52;;
38111;SDS011;64011;56.312;44.048;2022-10-16T08:03:10;17.65;;;8.43;;
38111;SDS011;64011;56.312;44.048;2022-10-16T08:05:11;17.80;;;8.55;;
38111;SDS011;64011;56.312;44.048;2022-10-16T08:07:12;20.33;;;9.25;;
38111;SDS011;64011;56.312;44.048;2022-10-16T08:09:12;19.88;;;8.43;;
38111;SDS011;64011;56.312;44.048;2022-10-16T08:11:13;19.00;;;8.70;;
38111;SDS011;64011;56.312;44.048;2022-10-16T08:13:15;18.20;;;8.88;;
38111;SDS011;64011;56.312;44.048;2022-10-16T08:15:16;19.70;;;8.27;;
38111;SDS011;64011;56.312;44.048;2022-10-16T08:17:17;22.42;;;8.65;;
38111;SDS011;64011;56.312;44.048;2022-10-16T08:19:18;20.65;;;8.75;;
38111;SDS011;64011;56.312;44.048;2022-10-16T08:21:19;18.90;;;8.57;;
38111;SDS011;64011;56.312;44.048;2022-10-16T08:23:21;21.77;;;8.93;;
38111;SDS011;64011;56.312;44.048;2022-10-16T08:25:22;19.98;;;8.57;;
38111;SDS011;64011;56.312;44.048;2022-10-16T08:27:23;20.48;;;9.05;;
38111;SDS011;64011;56.312;44.048;2022-10-16T08:29:25;20.13;;;9.50;;
38111;SDS011;64011;56.312;44.048;2022-10-16T08:31:26;18.73;;;9.57;;
38111;SDS011;64011;56.312;44.048;2022-10-16T08:33:27;22.48;;;9.93;;
38111;SDS011;64011;56.312;44.048;2022-10-16T08:35:27;21.42;;;9.10;;
38111;SDS011;64011;56.312;44.048;2022-10-16T08:37:29;20.02;;;9.18;;
38111;SDS011;64011;56.312;44.048;2022-10-16T08:39:30;21.92;;;11.10;;
38111;SDS011;64011;56.312;44.048;2022-10-16T08:41:42;20.60;;;9.80;;
38111;SDS011;64011;56.312;44.048;2022-10-16T08:44:10;21.25;;;10.32;;
38111;SDS011;64011;56.312;44.048;2022-10-16T08:46:28;19.65;;;10.68;;
38111;SDS011;64011;56.312;44.048;2022-10-16T08:48:35;22.88;;;11.15;;
38111;SDS011;64011;56.312;44.048;2022-10-16T08:50:41;20.95;;;11.25;;
38111;SDS011;64011;56.312;44.048;2022-10-16T08:52:43;21.67;;;11.13;;
38111;SDS011;64011;56.312;44.048;2022-10-16T08:54:45;24.50;;;12.18;;
38111;SDS011;64011;56.312;44.048;2022-10-16T08:56:48;22.73;;;11.75;;
38111;SDS011;64011;56.312;44.048;2022-10-16T08:58:48;23.42;;;13.10;;
38111;SDS011;64011;56.312;44.048;2022-10-16T09:00:51;23.42;;;12.45;;
38111;SDS011;64011;56.312;44.048;2022-10-16T09:02:58;23.48;;;12.95;;
38111;SDS011;64011;56.312;44.048;2022-10-16T09:07:24;25.33;;;14.00;;
38111;SDS011;64011;56.312;44.048;2022-10-16T09:09:32;30.08;;;13.52;;
38111;SDS011;64011;56.312;44.048;2022-10-16T09:11:46;24.42;;;12.73;;
38111;SDS011;64011;56.312;44.048;2022-10-16T09:13:50;25.50;;;12.25;;
38111;SDS011;64011;56.312;44.048;2022-10-16T09:15:56;25.23;;;12.55;;
38111;SDS011;64011;56.312;44.048;2022-10-16T09:18:04;24.15;;;13.73;;
38111;SDS011;64011;56.312;44.048;2022-10-16T09:20:13;26.88;;;13.68;;
38111;SDS011;64011;56.312;44.048;2022-10-16T09:22:20;25.70;;;13.82;;
38111;SDS011;64011;56.312;44.048;2022-10-16T09:24:23;25.50;;;14.38;;
38111;SDS011;64011;56.312;44.048;2022-10-16T09:26:26;24.35;;;13.27;;
38111;SDS011;64011;56.312;44.048;2022-10-16T09:28:26;24.95;;;14.40;;
38111;SDS011;64011;56.312;44.048;2022-10-16T09:30:28;26.85;;;13.98;;
38111;SDS011;64011;56.312;44.048;2022-10-16T09:32:29;25.13;;;14.88;;
38111;SDS011;64011;56.312;44.048;2022-10-16T09:34:32;26.92;;;14.75;;
38111;SDS011;64011;56.312;44.048;2022-10-16T09:36:35;26.33;;;14.32;;
38111;SDS011;64011;56.312;44.048;2022-10-16T09:38:40;25.33;;;13.73;;
38111;SDS011;64011;56.312;44.048;2022-10-16T09:40:41;27.80;;;14.98;;
38111;SDS011;64011;56.312;44.048;2022-10-16T09:42:42;25.23;;;14.25;;
38111;SDS011;64011;56.312;44.048;2022-10-16T09:44:46;25.20;;;13.82;;
38111;SDS011;64011;56.312;44.048;2022-10-16T09:46:48;26.75;;;13.85;;
38111;SDS011;64011;56.312;44.048;2022-10-16T09:48:49;25.90;;;13.18;;
38111;SDS011;64011;56.312;44.048;2022-10-16T09:50:59;24.35;;;13.77;;
38111;SDS011;64011;56.312;44.048;2022-10-16T09:53:04;25.10;;;13.48;;
38111;SDS011;64011;56.312;44.048;2022-10-16T09:55:13;26.08;;;13.88;;
38111;SDS011;64011;56.312;44.048;2022-10-16T09:57:14;22.95;;;12.25;;
38111;SDS011;64011;56.312;44.048;2022-10-16T09:59:15;23.95;;;13.02;;
38111;SDS011;64011;56.312;44.048;2022-10-16T10:01:17;27.27;;;13.27;;
38111;SDS011;64011;56.312;44.048;2022-10-16T10:03:25;23.20;;;12.43;;
38111;SDS011;64011;56.312;44.048;2022-10-16T10:05:33;25.15;;;12.00;;
38111;SDS011;64011;56.312;44.048;2022-10-16T10:07:37;24.88;;;11.63;;
38111;SDS011;64011;56.312;44.048;2022-10-16T10:09:43;21.97;;;12.83;;
38111;SDS011;64011;56.312;44.048;2022-10-16T10:11:47;24.50;;;13.25;;
38111;SDS011;64011;56.312;44.048;2022-10-16T10:13:49;23.55;;;13.52;;
38111;SDS011;64011;56.312;44.048;2022-10-16T10:15:50;27.20;;;14.85;;
38111;SDS011;64011;56.312;44.048;2022-10-16T10:17:51;23.45;;;13.00;;
38111;SDS011;64011;56.312;44.048;2022-10-16T10:19:53;22.63;;;12.88;;
38111;SDS011;64011;56.312;44.048;2022-10-16T10:21:54;24.13;;;13.30;;
38111;SDS011;64011;56.312;44.048;2022-10-16T10:23:56;24.45;;;13.30;;
38111;SDS011;64011;56.312;44.048;2022-10-16T10:25:58;23.67;;;13.05;;
38111;SDS011;64011;56.312;44.048;2022-10-16T10:28:16;23.48;;;13.57;;
38111;SDS011;64011;56.312;44.048;2022-10-16T10:30:22;24.80;;;12.43;;
38111;SDS011;64011;56.312;44.048;2022-10-16T10:32:26;24.42;;;12.38;;
38111;SDS011;64011;56.312;44.048;2022-10-16T10:34:35;22.67;;;12.02;;
38111;SDS011;64011;56.312;44.048;2022-10-16T10:36:43;23.17;;;11.80;;
38111;SDS011;64011;56.312;44.048;2022-10-16T10:38:48;23.60;;;12.15;;
38111;SDS011;64011;56.312;44.048;2022-10-16T10:40:52;24.08;;;12.68;;
38111;SDS011;64011;56.312;44.048;2022-10-16T10:42:59;23.02;;;12.95;;
38111;SDS011;64011;56.312;44.048;2022-10-16T10:45:11;21.77;;;13.05;;
38111;SDS011;64011;56.312;44.048;2022-10-16T10:47:20;25.42;;;12.70;;
38111;SDS011;64011;56.312;44.048;2022-10-16T10:49:34;23.55;;;12.70;;
38111;SDS011;64011;56.312;44.048;2022-10-16T10:51:44;24.27;;;13.15;;
38111;SDS011;64011;56.312;44.048;2022-10-16T10:53:52;24.05;;;13.35;;
38111;SDS011;64011;56.312;44.048;2022-10-16T10:56:00;26.27;;;13.60;;
38111;SDS011;64011;56.312;44.048;2022-10-16T10:58:11;23.70;;;11.23;;
38111;SDS011;64011;56.312;44.048;2022-10-16T11:00:20;22.05;;;10.73;;
38111;SDS011;64011;56.312;44.048;2022-10-16T11:02:23;22.60;;;11.60;;
38111;SDS011;64011;56.312;44.048;2022-10-16T11:04:34;23.75;;;11.93;;
38111;SDS011;64011;56.312;44.048;2022-10-16T11:08:47;22.17;;;11.00;;
38111;SDS011;64011;56.312;44.048;2022-10-16T11:10:52;27.35;;;14.18;;
38111;SDS011;64011;56.312;44.048;2022-10-16T11:12:57;26.27;;;12.85;;
38111;SDS011;64011;56.312;44.048;2022-10-16T11:15:12;24.98;;;11.77;;
38111;SDS011;64011;56.312;44.048;2022-10-16T11:17:15;23.30;;;12.43;;
38111;SDS011;64011;56.312;44.048;2022-10-16T11:19:21;23.05;;;13.43;;
38111;SDS011;64011;56.312;44.048;2022-10-16T11:21:29;21.80;;;11.38;;
38111;SDS011;64011;56.312;44.048;2022-10-16T11:23:41;24.95;;;12.40;;
38111;SDS011;64011;56.312;44.048;2022-10-16T11:25:44;23.33;;;12.07;;
38111;SDS011;64011;56.312;44.048;2022-10-16T11:27:47;21.42;;;10.18;;
38111;SDS011;64011;56.312;44.048;2022-10-16T11:29:55;20.73;;;10.27;;
38111;SDS011;64011;56.312;44.048;2022-10-16T11:31:58;19.58;;;10.10;;
38111;SDS011;64011;56.312;44.048;2022-10-16T11:34:03;21.67;;;9.80;;
38111;SDS011;64011;56.312;44.048;2022-10-16T11:36:08;22.77;;;9.38;;
38111;SDS011;64011;56.312;44.048;2022-10-16T11:38:14;22.00;;;10.32;;
38111;SDS011;64011;56.312;44.048;2022-10-16T11:40:28;28.92;;;14.05;;
38111;SDS011;64011;56.312;44.048;2022-10-16T11:42:30;19.38;;;8.85;;
38111;SDS011;64011;56.312;44.048;2022-10-16T11:44:40;28.10;;;14.18;;
38111;SDS011;64011;56.312;44.048;2022-10-16T11:46:48;37.03;;;20.63;;
38111;SDS011;64011;56.312;44.048;2022-10-16T11:48:54;23.88;;;12.20;;
38111;SDS011;64011;56.312;44.048;2022-10-16T11:51:02;16.20;;;7.10;;
38111;SDS011;64011;56.312;44.048;2022-10-16T11:53:09;17.50;;;7.35;;
38111;SDS011;64011;56.312;44.048;2022-10-16T11:55:14;16.55;;;6.70;;
38111;SDS011;64011;56.312;44.048;2022-10-16T11:57:19;16.67;;;6.90;;
38111;SDS011;64011;56.312;44.048;2022-10-16T11:59:23;16.38;;;6.47;;
38111;SDS011;64011;56.312;44.048;2022-10-16T12:01:30;20.85;;;7.38;;